sensor_id;sensor_type;location;lat;lon;timestamp;pressure;altitude;pressure_sealevel;temperature;humidity
1401;BME280;46518;48.842;8.926;2023-12-14T00:02:31;96080.31;;;5.80;100.00
1401;BME280;46518;48.842;8.926;2023-12-14T00:05:00;96107.34;;;5.91;100.00
1401;BME280;46518;48.842;8.926;2023-12-14T00:07:28;96108.00;;;5.81;100.00
1401;BME280;46518;48.842;8.926;2023-12-14T00:09:57;96108.16;;;5.92;100.00
1401;BME280;46518;48.842;8.926;2023-12-14T00:12:27;96097.66;;;5.70;100.00
1401;BME280;46518;48.842;8.926;2023-12-14T00:14:55;96091.81;;;5.62;100.00
1401;BME280;46518;48.842;8.926;2023-12-14T00:17:24;96100.41;;;5.63;100.00
1401;BME280;46518;48.842;8.926;2023-12-14T00:19:52;96114.88;;;5.71;100.00
1401;BME280;46518;48.842;8.926;2023-12-14T00:22:21;96120.19;;;5.76;100.00
1401;BME280;46518;48.842;8.926;2023-12-14T00:24:49;96133.03;;;5.94;100.00
1401;BME280;46518;48.842;8.926;2023-12-14T00:27:17;96124.78;;;6.02;100.00
1401;BME280;46518;48.842;8.926;2023-12-14T00:29:47;96121.59;;;6.00;100.00
1401;BME280;46518;48.842;8.926;2023-12-14T00:32:15;96133.47;;;5.91;100.00
1401;BME280;46518;48.842;8.926;2023-12-14T00:34:43;96129.19;;;5.85;100.00
1401;BME280;46518;48.842;8.926;2023-12-14T00:37:12;96139.41;;;5.70;100.00
1401;BME280;46518;48.842;8.926;2023-12-14T00:39:40;96144.38;;;5.88;100.00
1401;BME280;46518;48.842;8.926;2023-12-14T00:42:08;96141.88;;;6.10;100.00
1401;BME280;46518;48.842;8.926;2023-12-14T00:44:36;96147.31;;;6.09;100.00
1401;BME280;46518;48.842;8.926;2023-12-14T00:47:06;96154.53;;;6.01;100.00
1401;BME280;46518;48.842;8.926;2023-12-14T00:49:34;96147.44;;;5.97;100.00
1401;BME280;46518;48.842;8.926;2023-12-14T00:52:03;96150.72;;;5.75;100.00
1401;BME280;46518;48.842;8.926;2023-12-14T00:54:32;96152.94;;;5.83;100.00
1401;BME280;46518;48.842;8.926;2023-12-14T00:57:01;96165.53;;;5.87;100.00
1401;BME280;46518;48.842;8.926;2023-12-14T00:59:29;96158.22;;;5.89;100.00
1401;BME280;46518;48.842;8.926;2023-12-14T01:01:58;96166.31;;;6.04;100.00
1401;BME280;46518;48.842;8.926;2023-12-14T01:04:28;96168.34;;;6.19;100.00
1401;BME280;46518;48.842;8.926;2023-12-14T01:06:56;96165.84;;;6.07;100.00
1401;BME280;46518;48.842;8.926;2023-12-14T01:09:24;96162.81;;;6.32;100.00
1401;BME280;46518;48.842;8.926;2023-12-14T01:11:52;96181.59;;;6.12;100.00
1401;BME280;46518;48.842;8.926;2023-12-14T01:14:20;96180.88;;;5.83;100.00
1401;BME280;46518;48.842;8.926;2023-12-14T01:16:49;96200.56;;;5.91;100.00
1401;BME280;46518;48.842;8.926;2023-12-14T01:19:17;96201.06;;;6.04;100.00
1401;BME280;46518;48.842;8.926;2023-12-14T01:21:47;96211.13;;;6.13;100.00
1401;BME280;46518;48.842;8.926;2023-12-14T01:24:15;96211.34;;;6.11;100.00
1401;BME280;46518;48.842;8.926;2023-12-14T01:26:43;96220.94;;;6.05;100.00
1401;BME280;46518;48.842;8.926;2023-12-14T01:29:12;96215.31;;;6.14;100.00
1401;BME280;46518;48.842;8.926;2023-12-14T01:31:40;96225.91;;;6.24;100.00
1401;BME280;46518;48.842;8.926;2023-12-14T01:34:08;96228.13;;;6.32;100.00
1401;BME280;46518;48.842;8.926;2023-12-14T01:36:38;96237.31;;;6.35;100.00
1401;BME280;46518;48.842;8.926;2023-12-14T01:39:08;96241.56;;;6.24;100.00
1401;BME280;46518;48.842;8.926;2023-12-14T01:41:36;96240.22;;;6.21;100.00
1401;BME280;46518;48.842;8.926;2023-12-14T01:44:04;96245.06;;;6.30;100.00
1401;BME280;46518;48.842;8.926;2023-12-14T01:46:33;96245.72;;;6.37;100.00
1401;BME280;46518;48.842;8.926;2023-12-14T01:49:01;96248.13;;;6.43;100.00
1401;BME280;46518;48.842;8.926;2023-12-14T01:51:29;96253.84;;;6.23;100.00
1401;BME280;46518;48.842;8.926;2023-12-14T01:53:57;96254.81;;;6.17;100.00
1401;BME280;46518;48.842;8.926;2023-12-14T01:56:27;96233.50;;;6.09;100.00
1401;BME280;46518;48.842;8.926;2023-12-14T01:58:55;96251.41;;;6.00;100.00
1401;BME280;46518;48.842;8.926;2023-12-14T02:01:30;96264.13;;;5.96;100.00
1401;BME280;46518;48.842;8.926;2023-12-14T02:04:04;96263.50;;;5.89;100.00
1401;BME280;46518;48.842;8.926;2023-12-14T02:06:34;96271.31;;;5.89;100.00
1401;BME280;46518;48.842;8.926;2023-12-14T02:09:02;96272.31;;;6.00;100.00
1401;BME280;46518;48.842;8.926;2023-12-14T02:11:32;96270.97;;;5.97;100.00
1401;BME280;46518;48.842;8.926;2023-12-14T02:14:03;96278.03;;;5.85;100.00
1401;BME280;46518;48.842;8.926;2023-12-14T02:16:32;96279.00;;;5.96;100.00
1401;BME280;46518;48.842;8.926;2023-12-14T02:19:01;96271.25;;;6.01;100.00
1401;BME280;46518;48.842;8.926;2023-12-14T02:21:29;96280.38;;;6.15;100.00
1401;BME280;46518;48.842;8.926;2023-12-14T02:23:59;96275.06;;;6.10;100.00
1401;BME280;46518;48.842;8.926;2023-12-14T02:26:27;96277.38;;;6.07;100.00
1401;BME280;46518;48.842;8.926;2023-12-14T02:28:55;96282.69;;;6.12;100.00
1401;BME280;46518;48.842;8.926;2023-12-14T02:31:23;96290.03;;;5.98;100.00
1401;BME280;46518;48.842;8.926;2023-12-14T02:33:51;96290.97;;;6.09;100.00
1401;BME280;46518;48.842;8.926;2023-12-14T02:36:20;96293.59;;;6.25;100.00
1401;BME280;46518;48.842;8.926;2023-12-14T02:38:48;96287.91;;;6.29;100.00
1401;BME280;46518;48.842;8.926;2023-12-14T02:41:17;96295.34;;;6.37;100.00
1401;BME280;46518;48.842;8.926;2023-12-14T02:43:46;96296.06;;;6.32;100.00
1401;BME280;46518;48.842;8.926;2023-12-14T02:46:14;96294.53;;;6.02;100.00
1401;BME280;46518;48.842;8.926;2023-12-14T02:48:43;96301.81;;;6.00;100.00
1401;BME280;46518;48.842;8.926;2023-12-14T02:51:14;96306.28;;;5.88;100.00
1401;BME280;46518;48.842;8.926;2023-12-14T02:53:43;96304.22;;;6.02;100.00
1401;BME280;46518;48.842;8.926;2023-12-14T02:56:11;96311.09;;;6.08;100.00
1401;BME280;46518;48.842;8.926;2023-12-14T02:58:41;96309.75;;;6.22;100.00
1401;BME280;46518;48.842;8.926;2023-12-14T03:01:09;96313.41;;;6.38;100.00
1401;BME280;46518;48.842;8.926;2023-12-14T03:03:38;96324.41;;;6.40;100.00
1401;BME280;46518;48.842;8.926;2023-12-14T03:06:06;96322.03;;;6.39;100.00
1401;BME280;46518;48.842;8.926;2023-12-14T03:08:35;96328.94;;;6.45;100.00
1401;BME280;46518;48.842;8.926;2023-12-14T03:11:03;96329.09;;;6.55;100.00
1401;BME280;46518;48.842;8.926;2023-12-14T03:13:31;96333.13;;;6.46;100.00
1401;BME280;46518;48.842;8.926;2023-12-14T03:16:01;96336.28;;;6.48;100.00
1401;BME280;46518;48.842;8.926;2023-12-14T03:18:29;96336.13;;;6.55;100.00
1401;BME280;46518;48.842;8.926;2023-12-14T03:20:57;96334.53;;;6.54;100.00
1401;BME280;46518;48.842;8.926;2023-12-14T03:23:25;96343.38;;;6.19;100.00
1401;BME280;46518;48.842;8.926;2023-12-14T03:25:54;96341.59;;;6.19;100.00
1401;BME280;46518;48.842;8.926;2023-12-14T03:28:22;96346.88;;;6.41;100.00
1401;BME280;46518;48.842;8.926;2023-12-14T03:30:50;96347.34;;;6.21;100.00
1401;BME280;46518;48.842;8.926;2023-12-14T03:33:19;96351.59;;;6.39;100.00
1401;BME280;46518;48.842;8.926;2023-12-14T03:35:49;96352.53;;;6.50;100.00
1401;BME280;46518;48.842;8.926;2023-12-14T03:38:17;96362.56;;;6.24;100.00
1401;BME280;46518;48.842;8.926;2023-12-14T03:40:45;96373.97;;;6.35;100.00
1401;BME280;46518;48.842;8.926;2023-12-14T03:43:13;96370.88;;;6.38;100.00
1401;BME280;46518;48.842;8.926;2023-12-14T03:45:41;96378.25;;;6.58;100.00
1401;BME280;46518;48.842;8.926;2023-12-14T03:48:10;96382.69;;;6.41;100.00
1401;BME280;46518;48.842;8.926;2023-12-14T03:50:40;96377.47;;;6.41;100.00
1401;BME280;46518;48.842;8.926;2023-12-14T03:53:08;96385.06;;;6.42;100.00
1401;BME280;46518;48.842;8.926;2023-12-14T03:55:36;96388.84;;;6.18;100.00
1401;BME280;46518;48.842;8.926;2023-12-14T03:58:04;96388.75;;;6.13;100.00
1401;BME280;46518;48.842;8.926;2023-12-14T04:00:32;96396.91;;;6.16;100.00
1401;BME280;46518;48.842;8.926;2023-12-14T04:03:00;96401.06;;;6.29;100.00
1401;BME280;46518;48.842;8.926;2023-12-14T04:05:29;96409.44;;;6.31;100.00
1401;BME280;46518;48.842;8.926;2023-12-14T04:07:58;96414.41;;;6.16;100.00
1401;BME280;46518;48.842;8.926;2023-12-14T04:10:27;96421.69;;;6.14;100.00
1401;BME280;46518;48.842;8.926;2023-12-14T04:12:55;96425.28;;;6.24;100.00
1401;BME280;46518;48.842;8.926;2023-12-14T04:15:23;96421.09;;;6.40;100.00
1401;BME280;46518;48.842;8.926;2023-12-14T04:17:51;96430.06;;;6.61;100.00
1401;BME280;46518;48.842;8.926;2023-12-14T04:20:19;96426.34;;;6.40;100.00
1401;BME280;46518;48.842;8.926;2023-12-14T04:22:48;96435.72;;;6.24;100.00
1401;BME280;46518;48.842;8.926;2023-12-14T04:25:17;96436.38;;;6.32;100.00
1401;BME280;46518;48.842;8.926;2023-12-14T04:27:45;96440.13;;;6.53;100.00
1401;BME280;46518;48.842;8.926;2023-12-14T04:30:13;96442.75;;;6.53;100.00
1401;BME280;46518;48.842;8.926;2023-12-14T04:32:41;96444.63;;;6.40;100.00
1401;BME280;46518;48.842;8.926;2023-12-14T04:35:10;96451.06;;;6.50;100.00
1401;BME280;46518;48.842;8.926;2023-12-14T04:37:38;96454.34;;;6.57;100.00
1401;BME280;46518;48.842;8.926;2023-12-14T04:40:07;96460.44;;;6.34;100.00
1401;BME280;46518;48.842;8.926;2023-12-14T04:42:38;96465.00;;;6.55;100.00
1401;BME280;46518;48.842;8.926;2023-12-14T04:45:06;96469.94;;;6.52;100.00
1401;BME280;46518;48.842;8.926;2023-12-14T04:47:36;96478.97;;;6.61;100.00
1401;BME280;46518;48.842;8.926;2023-12-14T04:50:05;96473.00;;;6.48;100.00
1401;BME280;46518;48.842;8.926;2023-12-14T04:52:33;96476.34;;;6.61;100.00
1401;BME280;46518;48.842;8.926;2023-12-14T04:55:01;96480.16;;;6.70;100.00
1401;BME280;46518;48.842;8.926;2023-12-14T04:57:29;96483.44;;;6.48;100.00
1401;BME280;46518;48.842;8.926;2023-12-14T04:59:59;96492.91;;;6.50;100.00
1401;BME280;46518;48.842;8.926;2023-12-14T05:02:27;96492.91;;;6.50;100.00
1401;BME280;46518;48.842;8.926;2023-12-14T05:04:55;96488.84;;;6.59;100.00
1401;BME280;46518;48.842;8.926;2023-12-14T05:07:24;96491.28;;;6.77;100.00
1401;BME280;46518;48.842;8.926;2023-12-14T05:09:52;96502.59;;;6.37;100.00
1401;BME280;46518;48.842;8.926;2023-12-14T05:12:22;96497.78;;;6.46;100.00
1401;BME280;46518;48.842;8.926;2023-12-14T05:14:56;96511.09;;;6.44;100.00
1401;BME280;46518;48.842;8.926;2023-12-14T05:17:29;96493.78;;;6.55;100.00
1401;BME280;46518;48.842;8.926;2023-12-14T05:20:01;96512.28;;;6.54;100.00
1401;BME280;46518;48.842;8.926;2023-12-14T05:22:34;96512.63;;;6.57;100.00
1401;BME280;46518;48.842;8.926;2023-12-14T05:25:09;96520.84;;;6.49;100.00
1401;BME280;46518;48.842;8.926;2023-12-14T05:27:43;96520.41;;;6.40;100.00
1401;BME280;46518;48.842;8.926;2023-12-14T05:30:22;96531.50;;;6.59;100.00
1401;BME280;46518;48.842;8.926;2023-12-14T05:33:10;96539.94;;;6.50;100.00
1401;BME280;46518;48.842;8.926;2023-12-14T05:35:42;96546.94;;;6.32;100.00
1401;BME280;46518;48.842;8.926;2023-12-14T05:38:14;96558.38;;;6.43;100.00
1401;BME280;46518;48.842;8.926;2023-12-14T05:40:48;96558.56;;;6.53;100.00
1401;BME280;46518;48.842;8.926;2023-12-14T05:43:20;96568.28;;;6.69;100.00
1401;BME280;46518;48.842;8.926;2023-12-14T05:45:52;96567.16;;;6.65;100.00
1401;BME280;46518;48.842;8.926;2023-12-14T05:48:26;96572.94;;;6.67;100.00
1401;BME280;46518;48.842;8.926;2023-12-14T05:50:59;96567.28;;;6.87;100.00
1401;BME280;46518;48.842;8.926;2023-12-14T05:53:32;96579.41;;;6.77;100.00
1401;BME280;46518;48.842;8.926;2023-12-14T05:56:08;96577.66;;;6.54;100.00
1401;BME280;46518;48.842;8.926;2023-12-14T05:58:40;96585.97;;;6.51;100.00
1401;BME280;46518;48.842;8.926;2023-12-14T06:01:12;96590.41;;;6.50;100.00
1401;BME280;46518;48.842;8.926;2023-12-14T06:03:46;96597.56;;;6.43;100.00
1401;BME280;46518;48.842;8.926;2023-12-14T06:06:16;96605.63;;;6.53;100.00
1401;BME280;46518;48.842;8.926;2023-12-14T06:08:45;96605.41;;;6.55;100.00
1401;BME280;46518;48.842;8.926;2023-12-14T06:11:13;96613.34;;;6.60;100.00
1401;BME280;46518;48.842;8.926;2023-12-14T06:13:42;96607.06;;;6.61;100.00
1401;BME280;46518;48.842;8.926;2023-12-14T06:16:10;96612.19;;;6.56;100.00
1401;BME280;46518;48.842;8.926;2023-12-14T06:18:39;96613.81;;;6.45;100.00
1401;BME280;46518;48.842;8.926;2023-12-14T06:21:12;96617.25;;;6.34;100.00
1401;BME280;46518;48.842;8.926;2023-12-14T06:23:51;96619.94;;;6.51;100.00
1401;BME280;46518;48.842;8.926;2023-12-14T06:26:20;96627.13;;;6.43;100.00
1401;BME280;46518;48.842;8.926;2023-12-14T06:28:48;96633.94;;;6.44;100.00
1401;BME280;46518;48.842;8.926;2023-12-14T06:31:17;96636.63;;;6.61;100.00
1401;BME280;46518;48.842;8.926;2023-12-14T06:33:47;96632.22;;;6.62;100.00
1401;BME280;46518;48.842;8.926;2023-12-14T06:36:18;96643.72;;;6.49;100.00
1401;BME280;46518;48.842;8.926;2023-12-14T06:38:46;96647.34;;;6.36;100.00
1401;BME280;46518;48.842;8.926;2023-12-14T06:41:19;96650.88;;;6.42;100.00
1401;BME280;46518;48.842;8.926;2023-12-14T06:43:47;96649.28;;;6.41;100.00
1401;BME280;46518;48.842;8.926;2023-12-14T06:46:16;96658.84;;;6.47;100.00
1401;BME280;46518;48.842;8.926;2023-12-14T06:48:44;96663.28;;;6.46;100.00
1401;BME280;46518;48.842;8.926;2023-12-14T06:51:13;96662.56;;;6.51;100.00
1401;BME280;46518;48.842;8.926;2023-12-14T06:53:43;96673.84;;;6.52;100.00
1401;BME280;46518;48.842;8.926;2023-12-14T06:56:13;96674.84;;;6.51;100.00
1401;BME280;46518;48.842;8.926;2023-12-14T06:58:43;96673.84;;;6.40;100.00
1401;BME280;46518;48.842;8.926;2023-12-14T07:01:12;96692.56;;;6.60;100.00
1401;BME280;46518;48.842;8.926;2023-12-14T07:03:42;96693.13;;;6.62;100.00
1401;BME280;46518;48.842;8.926;2023-12-14T07:06:12;96699.94;;;6.75;100.00
1401;BME280;46518;48.842;8.926;2023-12-14T07:08:40;96702.84;;;6.90;100.00
1401;BME280;46518;48.842;8.926;2023-12-14T07:11:11;96712.72;;;7.00;100.00
1401;BME280;46518;48.842;8.926;2023-12-14T07:13:40;96710.22;;;6.94;100.00
1401;BME280;46518;48.842;8.926;2023-12-14T07:16:09;96727.25;;;7.08;100.00
1401;BME280;46518;48.842;8.926;2023-12-14T07:18:39;96728.13;;;7.13;100.00
1401;BME280;46518;48.842;8.926;2023-12-14T07:21:08;96730.13;;;6.95;100.00
1401;BME280;46518;48.842;8.926;2023-12-14T07:23:36;96733.19;;;7.03;100.00
1401;BME280;46518;48.842;8.926;2023-12-14T07:26:05;96742.72;;;7.09;100.00
1401;BME280;46518;48.842;8.926;2023-12-14T07:28:35;96751.16;;;7.11;100.00
1401;BME280;46518;48.842;8.926;2023-12-14T07:31:04;96751.34;;;7.22;100.00
1401;BME280;46518;48.842;8.926;2023-12-14T07:33:32;96760.41;;;7.31;100.00
1401;BME280;46518;48.842;8.926;2023-12-14T07:36:02;96766.56;;;7.37;100.00
1401;BME280;46518;48.842;8.926;2023-12-14T07:38:31;96776.94;;;7.20;100.00
1401;BME280;46518;48.842;8.926;2023-12-14T07:41:00;96775.34;;;7.19;100.00
1401;BME280;46518;48.842;8.926;2023-12-14T07:43:28;96775.69;;;7.22;100.00
1401;BME280;46518;48.842;8.926;2023-12-14T07:45:57;96782.38;;;7.30;100.00
1401;BME280;46518;48.842;8.926;2023-12-14T07:48:26;96786.34;;;7.32;100.00
1401;BME280;46518;48.842;8.926;2023-12-14T07:50:56;96789.94;;;7.15;100.00
1401;BME280;46518;48.842;8.926;2023-12-14T07:53:24;96787.44;;;6.96;100.00
1401;BME280;46518;48.842;8.926;2023-12-14T07:55:52;96784.16;;;7.01;100.00
1401;BME280;46518;48.842;8.926;2023-12-14T07:58:21;96793.81;;;7.00;100.00
1401;BME280;46518;48.842;8.926;2023-12-14T08:00:49;96796.66;;;7.10;100.00
1401;BME280;46518;48.842;8.926;2023-12-14T08:03:19;96811.69;;;6.91;100.00
1401;BME280;46518;48.842;8.926;2023-12-14T08:05:47;96803.81;;;7.15;100.00
1401;BME280;46518;48.842;8.926;2023-12-14T08:08:15;96818.44;;;7.40;100.00
1401;BME280;46518;48.842;8.926;2023-12-14T08:10:44;96818.63;;;7.50;100.00
1401;BME280;46518;48.842;8.926;2023-12-14T08:13:12;96822.63;;;7.52;100.00
1401;BME280;46518;48.842;8.926;2023-12-14T08:15:41;96827.75;;;7.47;100.00
1401;BME280;46518;48.842;8.926;2023-12-14T08:18:09;96831.34;;;7.58;100.00
1401;BME280;46518;48.842;8.926;2023-12-14T08:20:39;96831.03;;;7.54;100.00
1401;BME280;46518;48.842;8.926;2023-12-14T08:23:07;96832.25;;;7.64;100.00
1401;BME280;46518;48.842;8.926;2023-12-14T08:25:35;96838.31;;;7.52;100.00
1401;BME280;46518;48.842;8.926;2023-12-14T08:28:04;96839.59;;;7.38;100.00
1401;BME280;46518;48.842;8.926;2023-12-14T08:30:32;96852.28;;;7.29;100.00
1401;BME280;46518;48.842;8.926;2023-12-14T08:33:00;96860.69;;;7.20;100.00
1401;BME280;46518;48.842;8.926;2023-12-14T08:35:30;96862.63;;;7.24;100.00
1401;BME280;46518;48.842;8.926;2023-12-14T08:37:59;96867.50;;;7.21;100.00
1401;BME280;46518;48.842;8.926;2023-12-14T08:40:28;96877.41;;;7.19;100.00
1401;BME280;46518;48.842;8.926;2023-12-14T08:42:59;96890.38;;;7.25;100.00
1401;BME280;46518;48.842;8.926;2023-12-14T08:45:27;96890.28;;;7.20;100.00
1401;BME280;46518;48.842;8.926;2023-12-14T08:47:55;96884.94;;;7.27;100.00
1401;BME280;46518;48.842;8.926;2023-12-14T08:50:28;96896.41;;;7.26;100.00
1401;BME280;46518;48.842;8.926;2023-12-14T08:52:56;96903.59;;;7.30;100.00
1401;BME280;46518;48.842;8.926;2023-12-14T08:55:27;96908.94;;;7.24;100.00
1401;BME280;46518;48.842;8.926;2023-12-14T08:58:00;96914.19;;;7.12;100.00
1401;BME280;46518;48.842;8.926;2023-12-14T09:00:28;96920.31;;;7.18;100.00
1401;BME280;46518;48.842;8.926;2023-12-14T09:02:56;96927.38;;;7.17;100.00
1401;BME280;46518;48.842;8.926;2023-12-14T09:05:25;96934.56;;;7.22;100.00
1401;BME280;46518;48.842;8.926;2023-12-14T09:07:53;96942.50;;;7.15;100.00
1401;BME280;46518;48.842;8.926;2023-12-14T09:10:23;96947.75;;;7.15;100.00
1401;BME280;46518;48.842;8.926;2023-12-14T09:12:53;96954.00;;;7.14;100.00
1401;BME280;46518;48.842;8.926;2023-12-14T09:15:22;96954.22;;;7.12;100.00
1401;BME280;46518;48.842;8.926;2023-12-14T09:17:50;96960.84;;;7.27;100.00
1401;BME280;46518;48.842;8.926;2023-12-14T09:20:18;96957.28;;;7.21;100.00
1401;BME280;46518;48.842;8.926;2023-12-14T09:22:47;96963.00;;;7.18;100.00
1401;BME280;46518;48.842;8.926;2023-12-14T09:25:15;96968.00;;;7.20;100.00
1401;BME280;46518;48.842;8.926;2023-12-14T09:27:43;96977.25;;;7.34;100.00
1401;BME280;46518;48.842;8.926;2023-12-14T09:30:16;96972.91;;;7.40;100.00
1401;BME280;46518;48.842;8.926;2023-12-14T09:32:45;96988.25;;;7.36;100.00
1401;BME280;46518;48.842;8.926;2023-12-14T09:35:13;96982.81;;;7.38;100.00
1401;BME280;46518;48.842;8.926;2023-12-14T09:37:42;96995.66;;;7.51;100.00
1401;BME280;46518;48.842;8.926;2023-12-14T09:40:10;97001.94;;;7.62;100.00
1401;BME280;46518;48.842;8.926;2023-12-14T09:42:46;97003.88;;;7.54;100.00
1401;BME280;46518;48.842;8.926;2023-12-14T09:45:16;96998.41;;;7.44;100.00
1401;BME280;46518;48.842;8.926;2023-12-14T09:47:47;96995.66;;;7.51;100.00
1401;BME280;46518;48.842;8.926;2023-12-14T09:50:16;96995.44;;;7.41;100.00
1401;BME280;46518;48.842;8.926;2023-12-14T09:52:44;96998.63;;;7.31;100.00
1401;BME280;46518;48.842;8.926;2023-12-14T09:55:17;97000.19;;;7.20;100.00
1401;BME280;46518;48.842;8.926;2023-12-14T09:57:46;97001.13;;;7.26;100.00
1401;BME280;46518;48.842;8.926;2023-12-14T10:00:36;97004.41;;;7.09;100.00
1401;BME280;46518;48.842;8.926;2023-12-14T10:03:23;97014.09;;;7.21;100.00
1401;BME280;46518;48.842;8.926;2023-12-14T10:05:54;97019.00;;;7.29;100.00
1401;BME280;46518;48.842;8.926;2023-12-14T10:08:23;97026.28;;;7.39;100.00
1401;BME280;46518;48.842;8.926;2023-12-14T10:10:55;97024.78;;;7.31;100.00
1401;BME280;46518;48.842;8.926;2023-12-14T10:13:38;97037.91;;;7.43;100.00
1401;BME280;46518;48.842;8.926;2023-12-14T10:16:08;97038.47;;;7.45;100.00
1401;BME280;46518;48.842;8.926;2023-12-14T10:18:36;97028.78;;;7.33;100.00
1401;BME280;46518;48.842;8.926;2023-12-14T10:21:06;97035.06;;;7.32;100.00
1401;BME280;46518;48.842;8.926;2023-12-14T10:23:35;97041.75;;;7.28;100.00
1401;BME280;46518;48.842;8.926;2023-12-14T10:26:04;97040.38;;;7.26;100.00
1401;BME280;46518;48.842;8.926;2023-12-14T10:28:33;97044.84;;;7.37;100.00
1401;BME280;46518;48.842;8.926;2023-12-14T10:31:01;97048.94;;;7.33;100.00
1401;BME280;46518;48.842;8.926;2023-12-14T10:33:33;97056.91;;;7.26;100.00
1401;BME280;46518;48.842;8.926;2023-12-14T10:36:03;97056.56;;;7.34;100.00
1401;BME280;46518;48.842;8.926;2023-12-14T10:38:32;97059.06;;;7.29;100.00
1401;BME280;46518;48.842;8.926;2023-12-14T10:41:03;97060.31;;;7.39;100.00
1401;BME280;46518;48.842;8.926;2023-12-14T10:43:36;97057.84;;;7.55;100.00
1401;BME280;46518;48.842;8.926;2023-12-14T10:46:16;97066.72;;;7.54;100.00
1401;BME280;46518;48.842;8.926;2023-12-14T10:48:47;97063.19;;;7.49;100.00
1401;BME280;46518;48.842;8.926;2023-12-14T10:51:18;97062.75;;;7.52;100.00
1401;BME280;46518;48.842;8.926;2023-12-14T10:53:48;97066.84;;;7.60;100.00
1401;BME280;46518;48.842;8.926;2023-12-14T10:56:18;97065.81;;;7.61;100.00
1401;BME280;46518;48.842;8.926;2023-12-14T10:58:50;97073.22;;;7.52;100.00
1401;BME280;46518;48.842;8.926;2023-12-14T11:01:23;97091.84;;;7.44;100.00
1401;BME280;46518;48.842;8.926;2023-12-14T11:03:58;97084.59;;;7.04;100.00
1401;BME280;46518;48.842;8.926;2023-12-14T11:06:29;97094.06;;;6.75;100.00
1401;BME280;46518;48.842;8.926;2023-12-14T11:09:02;97089.66;;;6.57;100.00
1401;BME280;46518;48.842;8.926;2023-12-14T11:11:54;97094.88;;;6.38;100.00
1401;BME280;46518;48.842;8.926;2023-12-14T11:14:24;97095.38;;;6.29;100.00
1401;BME280;46518;48.842;8.926;2023-12-14T11:16:54;97100.31;;;6.18;100.00
1401;BME280;46518;48.842;8.926;2023-12-14T11:19:26;97097.94;;;6.17;100.00
1401;BME280;46518;48.842;8.926;2023-12-14T11:25:03;97096.31;;;6.16;100.00
1401;BME280;46518;48.842;8.926;2023-12-14T11:27:31;97101.69;;;6.02;100.00
1401;BME280;46518;48.842;8.926;2023-12-14T11:30:02;97104.03;;;6.11;100.00
1401;BME280;46518;48.842;8.926;2023-12-14T11:32:30;97116.59;;;6.20;100.00
1401;BME280;46518;48.842;8.926;2023-12-14T11:35:00;97122.53;;;6.28;100.00
1401;BME280;46518;48.842;8.926;2023-12-14T11:37:28;97122.03;;;6.37;100.00
1401;BME280;46518;48.842;8.926;2023-12-14T11:39:57;97133.34;;;6.31;100.00
1401;BME280;46518;48.842;8.926;2023-12-14T11:42:25;97139.66;;;6.23;100.00
1401;BME280;46518;48.842;8.926;2023-12-14T11:44:58;97152.88;;;6.29;100.00
1401;BME280;46518;48.842;8.926;2023-12-14T11:47:26;97143.94;;;6.36;100.00
1401;BME280;46518;48.842;8.926;2023-12-14T11:49:55;97143.81;;;6.68;100.00
1401;BME280;46518;48.842;8.926;2023-12-14T11:52:24;97151.66;;;6.86;100.00
1401;BME280;46518;48.842;8.926;2023-12-14T11:54:53;97138.28;;;6.95;100.00
1401;BME280;46518;48.842;8.926;2023-12-14T11:57:21;97139.88;;;6.77;100.00
1401;BME280;46518;48.842;8.926;2023-12-14T11:59:50;97151.81;;;7.03;100.00
1401;BME280;46518;48.842;8.926;2023-12-14T12:02:23;97142.41;;;6.84;100.00
1401;BME280;46518;48.842;8.926;2023-12-14T12:04:52;97148.63;;;7.01;100.00
1401;BME280;46518;48.842;8.926;2023-12-14T12:07:21;97150.97;;;7.09;100.00
1401;BME280;46518;48.842;8.926;2023-12-14T12:09:50;97154.09;;;7.30;100.00
1401;BME280;46518;48.842;8.926;2023-12-14T12:12:20;97155.16;;;7.41;100.00
1401;BME280;46518;48.842;8.926;2023-12-14T12:14:49;97161.75;;;7.31;100.00
1401;BME280;46518;48.842;8.926;2023-12-14T12:17:19;97165.53;;;7.47;100.00
1401;BME280;46518;48.842;8.926;2023-12-14T12:19:48;97165.16;;;7.32;100.00
1401;BME280;46518;48.842;8.926;2023-12-14T12:22:17;97171.00;;;6.67;100.00
1401;BME280;46518;48.842;8.926;2023-12-14T12:24:45;97161.75;;;6.28;100.00
1401;BME280;46518;48.842;8.926;2023-12-14T12:27:20;97166.34;;;6.32;100.00
1401;BME280;46518;48.842;8.926;2023-12-14T12:29:48;97167.78;;;6.28;100.00
1401;BME280;46518;48.842;8.926;2023-12-14T12:32:20;97170.66;;;6.20;100.00
1401;BME280;46518;48.842;8.926;2023-12-14T12:34:49;97168.41;;;6.23;100.00
1401;BME280;46518;48.842;8.926;2023-12-14T12:37:19;97174.88;;;6.21;100.00
1401;BME280;46518;48.842;8.926;2023-12-14T12:39:48;97181.31;;;6.18;100.00
1401;BME280;46518;48.842;8.926;2023-12-14T12:42:16;97168.97;;;6.07;100.00
1401;BME280;46518;48.842;8.926;2023-12-14T12:44:46;97178.78;;;6.12;100.00
1401;BME280;46518;48.842;8.926;2023-12-14T12:47:14;97178.94;;;6.17;100.00
1401;BME280;46518;48.842;8.926;2023-12-14T12:49:43;97182.47;;;6.29;100.00
1401;BME280;46518;48.842;8.926;2023-12-14T12:52:11;97187.88;;;6.28;100.00
1401;BME280;46518;48.842;8.926;2023-12-14T12:54:39;97179.50;;;6.19;100.00
1401;BME280;46518;48.842;8.926;2023-12-14T12:57:08;97190.63;;;6.14;100.00
1401;BME280;46518;48.842;8.926;2023-12-14T12:59:36;97186.63;;;6.12;100.00
1401;BME280;46518;48.842;8.926;2023-12-14T13:02:06;97191.41;;;6.15;100.00
1401;BME280;46518;48.842;8.926;2023-12-14T13:04:34;97189.41;;;6.17;100.00
1401;BME280;46518;48.842;8.926;2023-12-14T13:07:04;97189.06;;;6.32;100.00
1401;BME280;46518;48.842;8.926;2023-12-14T13:09:32;97190.75;;;6.44;100.00
1401;BME280;46518;48.842;8.926;2023-12-14T13:12:00;97197.84;;;6.37;100.00
1401;BME280;46518;48.842;8.926;2023-12-14T13:14:30;97197.94;;;6.49;100.00
1401;BME280;46518;48.842;8.926;2023-12-14T13:16:59;97201.22;;;6.63;100.00
1401;BME280;46518;48.842;8.926;2023-12-14T13:19:29;97207.47;;;6.62;100.00
1401;BME280;46518;48.842;8.926;2023-12-14T13:21:57;97204.69;;;6.57;100.00
1401;BME280;46518;48.842;8.926;2023-12-14T13:24:26;97210.72;;;6.76;100.00
1401;BME280;46518;48.842;8.926;2023-12-14T13:26:55;97216.75;;;6.76;100.00